Pellston Regional Airport of Emmet County Airport
KPLN : now visible

Airfield :











YOU CAN JOIN US ON...

 
LOGIN :

Register | Disclaimer

   EN    FR    IT 

 









Legend :    VFR   Marginal VFR   IFR   Intensive IFR   Very Intensive IFR
Visi :
Ceiling :
>= 8 km
>= 3000ft
5 to 8 km
1000 to 3000 ft
1500m to 5 km
500 to 1000 ft
800 to 1500m
200 to 500 ft
< 800m
< 200 ft
Symbols :   Thunderstorms  Fog  Heavy snow  Heavy precipitations  Wind > 20 kt






- Airport Elevation : 721 ft
- IATA code : PLN


KPLN - Pellston Regional of Emmet County

CURRENT METAR :
  • 150754Z AUTO 34015KT 4SM -SN OVC022 M06/M09 A2975 RMK AO2 PK WND 32026/0656 SNB0658 SLP086 P0000 T10611094

EXPIRED METARs :
  • 150729Z AUTO 33014G24KT 3SM -SN OVC020 M06/M09 A2974 RMK AO2 PK WND 32026/0656 SNB0658 P0000 T10611094
  • 150715Z AUTO 33015KT 2 1/2SM -SN BKN018 OVC023 M06/M09 A2973 RMK AO2 PK WND 32026/0656 SNB0658 P0000 T10561089
  • 150654Z AUTO 32018KT 5SM HZ BKN022 BKN027 OVC080 M06/M09 A2972 RMK AO2 PK WND 32026/0614 SNB34E44 SLP072 P0000 T10561094
  • 150554Z AUTO 31014KT 8SM OVC022 M04/M08 A2969 RMK AO2 SLP063 60000 T10441083 11017 21044 53019

TAF KPLN
Valid from the 15 at 06:00 until the 16 at 06:00 UTC


150529Z 1506/1606 33014G24KT P6SM VCSH BKN015 OVC025
FM151100 33011G20KT P6SM VCSH OVC019
FM151300 32009KT P6SM VCSH OVC021
FM151800 28006KT P6SM BKN040
FM152300 25006KT P6SM VCSH BKN030



MET'MAP, your aeronautical weather chart ! - Copyright ORBIFLY December 2007 - Disclaimer

ORBIFLY MET'MAP TEAM :

Programming & Development : Alexandra Zaïnal
Concept & original design : Baudouin d'Aumeries
Assistance for programming : Marc-Olivier Méhu
Technical & hardware support : Manuel Goepfert

Contact : metmap@orbifly.com




SOURCES & CREDITS :

   NOAA       Earth
Advisory